Terminal Aerodrome Forecast
Issued by NWS Wilmington, NC

Home | Current Version | Previous Version | Text Only | Print | Product List | Glossary On
Versions: 1 2 3 4 5 6 7 8 9 10 11 12 13 14 15 16 17 18 19 20 21 22 23
000
FTUS42 KILM 032337
TAFFLO
TAF
KFLO 032337Z 0400/0424 25010KT P6SM SCT040 SCT120
     FM040800 23006KT P6SM VCSH SCT040 BKN120
     FM041400 26010G17KT P6SM FEW080 BKN200
     FM041800 25011G20KT P6SM VCSH SCT050 SCT250=

USA.gov is the U.S. government's official web portal to all federal, state and local government web resources and services.